Time;durP1;ratioP1;P1;durP2;ratioP2;P2;SDS_P1;SDS_P2;PMS_P1;PMS_P2;Temp;Humidity;BMP_temperature;BMP_pressure;BME280_temperature;BME280_humidity;BME280_pressure;Samples;Min_cycle;Max_cycle;Signal;HPM_P1;HPM_P2
2022/07/02 00:01:26;;;;;;;8.15;3.00;;;14.70;99.90;;;;;;5041621;28;20041;-59
2022/07/02 00:03:55;;;;;;;7.68;3.05;;;14.70;99.90;;;;;;5041142;28;20140;-59
2022/07/02 00:06:26;;;;;;;7.03;3.13;;;14.70;99.90;;;;;;5040534;28;20041;-59
2022/07/02 00:08:54;;;;;;;6.32;2.63;;;14.60;99.90;;;;;;5041830;28;20041;-60
2022/07/02 00:11:20;;;;;;;7.97;2.92;;;14.60;99.90;;;;;;5038524;28;20053;-59
2022/07/02 00:13:48;;;;;;;7.88;2.97;;;14.50;99.90;;;;;;5041308;28;20056;-60
2022/07/02 00:16:14;;;;;;;6.35;2.70;;;14.60;99.90;;;;;;5040021;28;20049;-60
2022/07/02 00:18:40;;;;;;;6.97;3.10;;;14.60;99.90;;;;;;5041288;28;20068;-59
2022/07/02 00:21:07;;;;;;;9.23;3.15;;;14.70;99.90;;;;;;5036027;28;20147;-59
2022/07/02 00:23:33;;;;;;;8.00;3.40;;;14.50;99.90;;;;;;5020092;28;20068;-59
2022/07/02 00:26:11;;;;;;;7.13;3.15;;;14.50;99.90;;;;;;5021891;28;20034;-60
2022/07/02 00:28:42;;;;;;;7.70;3.30;;;14.50;99.90;;;;;;5019685;28;20637;-63
2022/07/02 00:31:08;;;;;;;7.28;3.45;;;14.30;99.90;;;;;;5021451;28;20057;-59
2022/07/02 00:33:37;;;;;;;6.63;3.20;;;14.30;99.90;;;;;;5020426;28;20038;-60
2022/07/02 00:36:04;;;;;;;8.98;3.50;;;14.30;99.90;;;;;;5020366;28;20121;-60
2022/07/02 00:38:30;;;;;;;7.55;2.97;;;14.20;99.90;;;;;;5021281;28;20053;-59
2022/07/02 00:40:59;;;;;;;7.10;3.33;;;14.20;99.90;;;;;;5019751;28;20042;-59
2022/07/02 00:43:26;;;;;;;8.43;3.58;;;14.10;99.90;;;;;;5021575;28;20117;-60
2022/07/02 00:45:56;;;;;;;8.05;3.50;;;14.20;99.90;;;;;;5019202;28;20038;-60
2022/07/02 00:48:22;;;;;;;8.98;3.58;;;14.10;99.90;;;;;;5021121;28;20048;-60
2022/07/02 00:50:48;;;;;;;8.73;3.58;;;14.20;99.90;;;;;;5021286;28;20077;-60
2022/07/02 00:53:14;;;;;;;12.90;3.78;;;14.20;99.90;;;;;;5039926;28;20048;-60
2022/07/02 00:55:39;;;;;;;9.45;3.30;;;14.10;99.90;;;;;;5040824;28;20053;-60
2022/07/02 00:58:05;;;;;;;9.55;3.33;;;14.10;99.90;;;;;;5039079;28;20370;-61
2022/07/02 01:00:31;;;;;;;10.50;3.90;;;14.10;99.90;;;;;;5041240;28;20041;-60
2022/07/02 01:02:59;;;;;;;8.90;2.90;;;14.00;99.90;;;;;;5038873;28;20034;-60
2022/07/02 01:05:25;;;;;;;7.35;3.28;;;13.90;99.90;;;;;;5040637;28;20872;-60
2022/07/02 01:10:42;;;;;;;10.70;3.67;;;14.10;99.90;;;;;;5039077;28;20052;-60
2022/07/02 01:13:10;;;;;;;8.73;3.17;;;14.00;99.90;;;;;;5040551;28;20088;-61
2022/07/02 01:15:38;;;;;;;6.60;3.38;;;14.10;99.90;;;;;;5038519;28;20080;-59
2022/07/02 01:18:03;;;;;;;7.43;3.58;;;14.00;99.90;;;;;;5040656;28;20041;-60
2022/07/02 01:20:29;;;;;;;7.65;3.50;;;14.00;99.90;;;;;;5038825;28;20111;-60
2022/07/02 01:22:55;;;;;;;9.35;3.47;;;14.00;99.90;;;;;;5020104;28;20056;-60
2022/07/02 01:25:22;;;;;;;8.93;3.53;;;14.00;99.90;;;;;;5019935;28;20052;-60
2022/07/02 01:27:48;;;;;;;9.60;3.78;;;14.10;99.90;;;;;;5019068;28;20446;-61
2022/07/02 01:30:13;;;;;;;7.38;3.53;;;13.80;99.90;;;;;;5020662;28;20042;-60
2022/07/02 01:32:39;;;;;;;8.80;3.80;;;13.80;99.90;;;;;;5018780;28;20045;-60
2022/07/02 01:35:08;;;;;;;8.45;3.67;;;13.90;99.90;;;;;;5020582;28;20038;-60
2022/07/02 01:37:36;;;;;;;10.35;4.10;;;13.80;99.90;;;;;;5018721;28;20045;-60
2022/07/02 01:40:02;;;;;;;10.43;4.20;;;13.80;99.90;;;;;;5019844;28;20100;-60
2022/07/02 01:42:28;;;;;;;7.80;4.18;;;13.90;99.90;;;;;;5019694;28;20117;-60
2022/07/02 01:44:54;;;;;;;12.10;4.50;;;13.80;99.90;;;;;;5018388;28;20065;-60
2022/07/02 01:47:20;;;;;;;7.32;4.18;;;13.80;99.90;;;;;;5019743;28;20046;-62
2022/07/02 01:49:45;;;;;;;7.63;3.70;;;13.80;99.90;;;;;;5018312;28;20061;-59
2022/07/02 01:52:13;;;;;;;10.70;4.40;;;13.80;99.90;;;;;;5032616;28;20046;-60
2022/07/02 01:54:39;;;;;;;8.82;4.15;;;13.80;99.90;;;;;;5037960;28;20535;-59
2022/07/02 01:57:05;;;;;;;8.77;4.05;;;13.70;99.90;;;;;;5039426;28;20101;-60
2022/07/02 01:59:31;;;;;;;11.93;4.32;;;13.70;99.90;;;;;;5038787;28;20097;-59
2022/07/02 02:01:57;;;;;;;7.80;4.32;;;13.60;99.90;;;;;;5037132;28;20076;-60
2022/07/02 02:04:23;;;;;;;10.05;4.63;;;13.60;99.90;;;;;;5039697;28;20042;-59
2022/07/02 02:06:49;;;;;;;9.85;4.43;;;13.60;99.90;;;;;;5037381;28;20041;-60
2022/07/02 02:09:14;;;;;;;9.02;4.40;;;13.70;99.90;;;;;;5038426;28;20441;-60
2022/07/02 02:11:40;;;;;;;12.02;4.68;;;13.70;99.90;;;;;;5037591;28;20044;-60
2022/07/02 02:14:06;;;;;;;10.45;4.55;;;13.70;99.90;;;;;;5038784;28;20049;-60
2022/07/02 02:16:32;;;;;;;12.00;4.97;;;13.60;99.90;;;;;;5038570;28;20076;-59
2022/07/02 02:18:59;;;;;;;9.82;5.20;;;13.60;99.90;;;;;;5038420;28;20049;-60
2022/07/02 02:21:26;;;;;;;10.10;5.20;;;13.60;99.90;;;;;;5031604;28;20050;-59
2022/07/02 02:23:53;;;;;;;12.40;5.13;;;13.60;99.90;;;;;;5017770;28;20045;-60
2022/07/02 02:26:19;;;;;;;10.18;4.60;;;13.60;99.90;;;;;;5019842;28;20046;-59
2022/07/02 02:28:45;;;;;;;13.38;5.53;;;13.50;99.90;;;;;;5017572;28;20077;-60
2022/07/02 02:31:10;;;;;;;8.10;4.43;;;13.60;99.90;;;;;;5019290;28;20161;-60
2022/07/02 02:33:36;;;;;;;10.48;4.97;;;13.40;99.90;;;;;;5018485;28;20094;-59
2022/07/02 02:36:02;;;;;;;10.85;5.15;;;13.50;99.90;;;;;;5018251;28;20046;-60
2022/07/02 02:38:28;;;;;;;8.98;4.63;;;13.60;99.90;;;;;;5019297;28;20168;-59
2022/07/02 02:40:54;;;;;;;11.35;4.68;;;13.50;99.90;;;;;;5017462;28;20042;-60
2022/07/02 02:43:20;;;;;;;10.63;5.38;;;13.40;99.90;;;;;;5019273;28;20085;-60
2022/07/02 02:45:46;;;;;;;9.10;5.13;;;13.50;99.90;;;;;;5017065;28;20038;-60
2022/07/02 02:48:12;;;;;;;10.48;4.68;;;13.50;99.90;;;;;;5019186;28;20048;-59
2022/07/02 02:50:37;;;;;;;11.27;5.15;;;13.30;99.90;;;;;;5017981;28;20470;-59
2022/07/02 02:53:03;;;;;;;11.35;5.20;;;13.40;99.90;;;;;;5037843;28;20497;-59
2022/07/02 02:55:29;;;;;;;11.98;4.72;;;13.40;99.90;;;;;;5038750;28;20053;-59
2022/07/02 02:57:55;;;;;;;7.95;4.32;;;13.30;99.90;;;;;;5036834;28;20048;-59
2022/07/02 03:00:21;;;;;;;9.40;4.50;;;13.30;99.90;;;;;;5038898;28;20069;-59
2022/07/02 03:02:47;;;;;;;9.13;4.65;;;13.50;99.90;;;;;;5037067;28;20079;-59
2022/07/02 03:05:12;;;;;;;9.60;4.78;;;13.30;99.90;;;;;;5037355;28;20041;-60
2022/07/02 03:07:38;;;;;;;10.07;4.57;;;13.40;99.90;;;;;;5037418;28;20034;-59
2022/07/02 03:10:04;;;;;;;8.95;4.90;;;13.40;99.90;;;;;;5037931;28;20056;-59
2022/07/02 03:12:30;;;;;;;13.20;5.50;;;13.30;99.90;;;;;;5038121;28;20034;-59
2022/07/02 03:14:56;;;;;;;10.43;4.75;;;13.40;99.90;;;;;;5036543;28;20085;-60
2022/07/02 03:17:22;;;;;;;8.75;4.30;;;13.40;99.90;;;;;;5038768;28;20103;-59
2022/07/02 03:19:48;;;;;;;8.63;4.65;;;13.40;99.90;;;;;;5035408;28;20037;-59
2022/07/02 03:22:13;;;;;;;11.07;4.75;;;13.30;99.90;;;;;;5024274;28;20042;-60
2022/07/02 03:24:39;;;;;;;10.45;4.38;;;13.40;99.90;;;;;;5017090;28;20045;-59
2022/07/02 03:27:05;;;;;;;12.80;4.85;;;13.40;99.90;;;;;;5018255;28;20105;-59
2022/07/02 03:29:30;;;;;;;9.27;4.32;;;13.30;99.90;;;;;;5016729;28;20045;-63
2022/07/02 03:31:56;;;;;;;11.43;5.15;;;13.30;99.90;;;;;;5017290;28;20097;-60
2022/07/02 03:34:22;;;;;;;11.60;5.07;;;13.40;99.90;;;;;;5018697;28;20050;-60
2022/07/02 03:36:47;;;;;;;9.15;4.47;;;13.40;99.90;;;;;;5015412;28;20045;-59
2022/07/02 03:39:13;;;;;;;10.73;4.55;;;13.40;99.90;;;;;;5018823;28;20042;-60
2022/07/02 03:41:38;;;;;;;11.10;5.22;;;13.50;99.90;;;;;;5016620;28;20046;-60
2022/07/02 03:44:04;;;;;;;7.70;4.25;;;13.50;99.90;;;;;;5018378;28;20053;-60
2022/07/02 03:46:30;;;;;;;13.75;4.38;;;13.50;99.90;;;;;;5017723;28;20105;-59
2022/07/02 03:48:55;;;;;;;11.20;5.00;;;13.40;99.90;;;;;;5017358;28;20165;-60
2022/07/02 03:51:21;;;;;;;10.57;4.55;;;13.50;99.90;;;;;;5024301;28;20116;-60
2022/07/02 03:53:48;;;;;;;9.57;4.50;;;13.30;99.90;;;;;;5036245;28;20045;-60
2022/07/02 03:56:14;;;;;;;10.30;4.05;;;13.40;99.90;;;;;;5038051;28;20077;-61
2022/07/02 03:58:40;;;;;;;15.18;5.07;;;13.50;99.90;;;;;;5036555;28;20108;-59
2022/07/02 04:01:07;;;;;;;10.60;4.35;;;13.50;99.90;;;;;;5036907;28;20045;-60
2022/07/02 04:03:33;;;;;;;9.18;3.88;;;13.60;99.90;;;;;;5035748;28;20482;-59
2022/07/02 04:06:00;;;;;;;10.32;4.03;;;13.70;99.90;;;;;;5036924;28;20030;-59
2022/07/02 04:08:25;;;;;;;12.50;4.97;;;13.60;99.90;;;;;;5037944;28;20037;-60
2022/07/02 04:10:51;;;;;;;14.23;5.03;;;13.60;99.90;;;;;;5037462;28;20042;-60
2022/07/02 04:13:17;;;;;;;11.15;4.70;;;13.60;99.90;;;;;;5041709;28;20552;-60
2022/07/02 04:15:42;;;;;;;11.38;4.80;;;13.70;99.90;;;;;;5039584;28;20061;-59
2022/07/02 04:18:09;;;;;;;14.82;4.93;;;13.70;99.90;;;;;;5041719;28;20049;-60
2022/07/02 04:20:35;;;;;;;13.15;4.70;;;13.70;99.90;;;;;;5039523;28;20523;-60
2022/07/02 04:23:01;;;;;;;11.40;4.13;;;13.80;99.90;;;;;;5019505;28;20034;-60
2022/07/02 04:25:26;;;;;;;11.38;4.75;;;13.90;99.90;;;;;;5019857;28;20057;-59
2022/07/02 04:27:52;;;;;;;8.93;4.18;;;14.00;99.90;;;;;;5019925;28;20054;-60
2022/07/02 04:30:18;;;;;;;9.77;4.93;;;14.10;99.90;;;;;;5021762;28;20054;-60
2022/07/02 04:32:43;;;;;;;11.32;4.88;;;14.10;99.90;;;;;;5019920;28;20089;-60
2022/07/02 04:35:09;;;;;;;9.82;4.55;;;14.10;99.90;;;;;;5021592;28;20240;-59
2022/07/02 04:37:35;;;;;;;11.32;4.15;;;14.10;99.90;;;;;;5020149;28;20046;-59
2022/07/02 04:40:00;;;;;;;11.00;5.05;;;14.20;99.90;;;;;;5020829;28;20360;-59
2022/07/02 04:42:26;;;;;;;10.05;4.32;;;14.30;99.90;;;;;;5021020;28;20387;-60
2022/07/02 04:44:52;;;;;;;8.52;4.28;;;14.30;99.90;;;;;;5019560;28;20050;-59
2022/07/02 04:47:17;;;;;;;10.60;4.70;;;14.40;99.90;;;;;;5021548;28;20046;-60
2022/07/02 04:49:43;;;;;;;8.98;4.15;;;14.50;99.90;;;;;;5018128;28;20054;-60
2022/07/02 04:52:09;;;;;;;12.90;5.25;;;14.60;99.90;;;;;;5033626;28;20044;-63
2022/07/02 04:54:34;;;;;;;12.02;4.72;;;14.70;99.90;;;;;;5039024;28;20117;-60
2022/07/02 04:57:00;;;;;;;10.27;4.15;;;14.80;99.90;;;;;;5040674;28;20091;-60
2022/07/02 04:59:26;;;;;;;12.23;4.15;;;14.90;99.90;;;;;;5040320;28;20084;-59
2022/07/02 05:01:51;;;;;;;10.20;4.22;;;15.00;99.90;;;;;;5039642;28;20042;-60
2022/07/02 05:04:18;;;;;;;8.73;3.75;;;15.10;99.90;;;;;;5040976;28;20041;-59
2022/07/02 05:06:44;;;;;;;9.02;4.28;;;15.20;99.90;;;;;;5038895;28;20037;-59
2022/07/02 05:09:10;;;;;;;9.88;4.68;;;15.20;99.90;;;;;;5040867;28;20160;-59
2022/07/02 05:11:36;;;;;;;9.85;4.15;;;15.40;99.90;;;;;;5038883;28;20048;-59
2022/07/02 05:14:02;;;;;;;8.25;4.32;;;15.40;99.90;;;;;;5039962;28;20056;-59
2022/07/02 05:16:28;;;;;;;12.18;4.70;;;15.50;99.90;;;;;;5038216;28;20088;-59
2022/07/02 05:18:53;;;;;;;14.40;5.90;;;15.50;99.90;;;;;;5039545;28;20037;-59
2022/07/02 05:21:19;;;;;;;8.85;5.18;;;15.60;99.90;;;;;;5033267;28;20139;-59
2022/07/02 05:23:45;;;;;;;9.98;5.65;;;15.60;99.90;;;;;;5017731;28;20038;-59
2022/07/02 05:26:10;;;;;;;11.25;4.82;;;15.60;99.90;;;;;;5020828;28;20050;-59
2022/07/02 05:28:36;;;;;;;9.32;4.60;;;15.70;99.90;;;;;;5018553;28;20045;-59
2022/07/02 05:31:02;;;;;;;10.57;5.18;;;15.70;99.90;;;;;;5020397;28;20053;-59
2022/07/02 05:33:27;;;;;;;12.57;5.45;;;15.90;99.90;;;;;;5019635;28;20034;-58
2022/07/02 05:35:53;;;;;;;9.93;5.43;;;15.90;99.90;;;;;;5019296;28;20104;-59
2022/07/02 05:38:19;;;;;;;11.52;5.25;;;15.90;99.90;;;;;;5020101;28;20038;-60
2022/07/02 05:40:44;;;;;;;9.05;5.10;;;15.90;99.90;;;;;;5018686;28;20045;-59
2022/07/02 05:43:10;;;;;;;11.10;5.82;;;16.00;99.90;;;;;;5020497;28;20713;-59
2022/07/02 05:45:36;;;;;;;12.35;6.20;;;16.00;99.90;;;;;;5018222;28;20121;-59
2022/07/02 05:48:01;;;;;;;12.52;6.05;;;16.10;99.90;;;;;;5020481;28;20108;-60
2022/07/02 05:50:27;;;;;;;12.25;6.20;;;16.20;99.90;;;;;;5018838;28;20046;-58
2022/07/02 05:52:53;;;;;;;11.30;5.97;;;16.20;99.90;;;;;;5036249;28;20056;-60
2022/07/02 05:55:19;;;;;;;10.55;5.85;;;16.30;99.90;;;;;;5039749;28;20453;-60
2022/07/02 05:57:44;;;;;;;11.35;6.40;;;16.40;99.90;;;;;;5036708;28;20613;-60
2022/07/02 06:00:11;;;;;;;10.48;6.32;;;16.40;99.90;;;;;;5039888;28;20141;-60
2022/07/02 06:02:37;;;;;;;14.35;6.40;;;16.40;99.90;;;;;;5037975;28;20396;-60
2022/07/02 06:07:48;;;;;;;11.70;6.07;;;16.50;99.90;;;;;;5033901;28;20077;-59
2022/07/02 06:10:18;;;;;;;17.00;6.15;;;16.60;99.90;;;;;;5034872;28;20068;-60
2022/07/02 06:12:51;;;;;;;8.07;5.00;;;16.70;99.90;;;;;;5035726;28;20493;-60
2022/07/02 06:15:18;;;;;;;9.60;5.82;;;16.70;99.90;;;;;;5032792;28;20508;-60
2022/07/02 06:17:44;;;;;;;12.98;5.32;;;16.80;99.90;;;;;;5032197;28;20037;-61
2022/07/02 06:20:11;;;;;;;10.95;4.95;;;16.70;99.90;;;;;;5033495;28;20101;-59
2022/07/02 06:22:37;;;;;;;11.32;5.20;;;16.90;99.90;;;;;;5017966;28;20046;-59
2022/07/02 06:25:04;;;;;;;8.27;4.50;;;17.10;99.90;;;;;;5014871;28;20077;-59
2022/07/02 06:27:34;;;;;;;10.63;5.20;;;17.10;99.90;;;;;;5014318;28;20034;-59
2022/07/02 06:30:05;;;;;;;9.60;4.97;;;17.10;99.90;;;;;;5015633;28;20041;-59
2022/07/02 06:32:31;;;;;;;8.48;4.75;;;17.00;99.90;;;;;;5013739;28;20054;-59
2022/07/02 06:34:57;;;;;;;10.63;4.38;;;17.20;99.90;;;;;;5015902;28;20788;-60
2022/07/02 06:37:24;;;;;;;9.40;4.15;;;17.40;99.90;;;;;;5026462;28;20069;-59
2022/07/02 06:39:50;;;;;;;10.05;4.80;;;17.50;99.90;;;;;;5034295;28;20053;-60
2022/07/02 06:42:19;;;;;;;11.00;4.38;;;17.40;99.90;;;;;;5033113;28;20079;-59
2022/07/02 06:44:52;;;;;;;13.07;5.38;;;17.50;99.90;;;;;;5029986;28;20038;-60
2022/07/02 06:47:19;;;;;;;9.95;4.45;;;17.50;99.90;;;;;;5033430;28;20038;-60
2022/07/02 06:49:44;;;;;;;9.27;4.20;;;17.30;99.90;;;;;;5027599;28;20049;-60
2022/07/02 06:52:11;;;;;;;9.88;3.97;;;17.60;99.90;;;;;;5035289;28;20076;-59
2022/07/02 06:54:37;;;;;;;13.55;4.30;;;17.60;99.90;;;;;;5031690;28;20498;-60
2022/07/02 06:57:04;;;;;;;9.38;3.83;;;17.60;99.90;;;;;;5034192;28;20026;-60
2022/07/02 06:59:30;;;;;;;9.60;4.57;;;17.50;99.90;;;;;;5034154;28;20067;-60
2022/07/02 07:01:55;;;;;;;10.50;4.07;;;17.70;99.90;;;;;;5033153;28;20042;-61
2022/07/02 07:04:21;;;;;;;13.43;4.50;;;17.80;99.90;;;;;;5034698;28;20064;-60
2022/07/02 07:06:50;;;;;;;9.60;3.65;;;17.90;99.90;;;;;;5032239;28;20095;-61
2022/07/02 07:09:16;;;;;;;9.52;3.63;;;18.00;99.90;;;;;;5031171;28;20037;-60
2022/07/02 07:11:41;;;;;;;11.15;4.28;;;18.10;99.90;;;;;;5032949;28;20144;-61
2022/07/02 07:14:07;;;;;;;10.48;4.00;;;17.70;99.90;;;;;;5032862;28;20068;-60
2022/07/02 07:16:33;;;;;;;9.68;3.85;;;18.10;99.90;;;;;;5034158;28;20518;-60
2022/07/02 07:18:59;;;;;;;12.05;4.07;;;18.20;99.90;;;;;;5032873;28;20057;-60
2022/07/02 07:21:25;;;;;;;8.43;3.25;;;18.10;99.90;;;;;;5026897;28;20053;-60
2022/07/02 07:23:51;;;;;;;8.70;3.70;;;18.20;99.90;;;;;;5013104;28;20034;-60
2022/07/02 07:26:17;;;;;;;8.27;3.58;;;18.30;99.90;;;;;;5015630;28;20169;-57
2022/07/02 07:28:42;;;;;;;8.68;3.40;;;18.40;99.90;;;;;;5018230;28;20076;-59
2022/07/02 07:31:08;;;;;;;9.55;3.33;;;18.50;99.90;;;;;;5033213;28;20303;-60
2022/07/02 07:33:34;;;;;;;8.80;3.17;;;18.60;99.90;;;;;;5032579;28;20045;-60
2022/07/02 07:35:59;;;;;;;7.88;3.55;;;18.40;99.90;;;;;;5031681;28;20048;-60
2022/07/02 07:38:25;;;;;;;9.10;2.70;;;18.50;99.90;;;;;;5034079;28;20068;-59
2022/07/02 07:40:50;;;;;;;9.13;2.92;;;18.60;99.90;;;;;;5032268;28;20033;-60
2022/07/02 07:43:16;;;;;;;8.32;3.25;;;18.90;99.90;;;;;;5034129;28;20124;-60
2022/07/02 07:45:42;;;;;;;7.22;2.67;;;18.80;99.90;;;;;;5033525;28;20411;-61
2022/07/02 07:48:08;;;;;;;8.57;2.78;;;18.50;99.90;;;;;;5037355;28;20084;-61
2022/07/02 07:50:33;;;;;;;6.90;2.75;;;18.50;99.90;;;;;;5033699;28;20107;-61
2022/07/02 07:52:59;;;;;;;8.52;2.40;;;18.70;99.90;;;;;;5037577;28;20052;-61
2022/07/02 07:55:25;;;;;;;7.20;2.17;;;18.80;99.90;;;;;;5038070;28;20045;-60
2022/07/02 07:57:50;;;;;;;4.93;1.80;;;19.00;99.90;;;;;;5035332;28;20436;-61
2022/07/02 08:00:16;;;;;;;6.63;1.73;;;19.20;99.90;;;;;;5037216;28;20076;-63
2022/07/02 08:02:42;;;;;;;4.43;1.67;;;19.20;99.90;;;;;;5036400;28;20065;-61
2022/07/02 08:05:08;;;;;;;6.15;1.30;;;19.10;99.90;;;;;;5038215;28;20056;-61
2022/07/02 08:07:38;;;;;;;4.65;1.25;;;19.20;99.90;;;;;;5036722;28;20111;-60
2022/07/02 08:10:06;;;;;;;4.88;1.30;;;19.20;99.90;;;;;;5037465;28;20049;-60
2022/07/02 08:12:32;;;;;;;5.10;1.67;;;19.10;99.90;;;;;;5037846;28;20048;-61
2022/07/02 08:14:59;;;;;;;5.80;1.63;;;19.10;99.90;;;;;;5035787;28;20124;-61
2022/07/02 08:17:29;;;;;;;4.55;1.42;;;19.10;99.90;;;;;;5036949;28;20045;-61
2022/07/02 08:19:56;;;;;;;5.07;1.25;;;19.30;99.90;;;;;;5035072;28;20109;-61
2022/07/02 08:22:21;;;;;;;6.20;1.30;;;19.30;99.90;;;;;;5022509;28;20053;-61
2022/07/02 08:24:47;;;;;;;3.90;1.20;;;19.40;99.90;;;;;;5016833;28;20119;-60
2022/07/02 08:27:13;;;;;;;3.75;1.00;;;19.30;99.90;;;;;;5017208;28;20038;-61
2022/07/02 08:29:38;;;;;;;3.63;1.23;;;19.50;99.90;;;;;;5017410;28;20054;-60
2022/07/02 08:32:05;;;;;;;4.65;1.20;;;19.30;99.90;;;;;;5016133;28;20073;-57
2022/07/02 08:34:32;;;;;;;4.95;1.30;;;19.20;99.90;;;;;;5018267;28;20092;-60
2022/07/02 08:36:58;;;;;;;5.57;1.30;;;19.20;99.90;;;;;;5015655;28;20077;-59
2022/07/02 08:39:24;;;;;;;5.90;1.10;;;19.50;99.90;;;;;;5018990;28;20133;-60
2022/07/02 08:41:52;;;;;;;5.60;1.30;;;19.60;99.90;;;;;;5018075;28;20088;-60
2022/07/02 08:44:21;;;;;;;5.88;1.33;;;19.50;99.90;;;;;;5020401;28;20050;-60
2022/07/02 08:46:48;;;;;;;6.35;1.40;;;19.50;99.90;;;;;;5019534;28;20046;-56
2022/07/02 08:49:20;;;;;;;3.92;1.30;;;19.50;99.90;;;;;;5017840;28;20069;-58
2022/07/02 08:52:08;;;;;;;3.80;1.10;;;19.60;99.90;;;;;;5030146;28;20489;-57
2022/07/02 08:54:34;;;;;;;5.10;1.20;;;19.70;99.90;;;;;;5038980;28;20057;-59
2022/07/02 08:57:02;;;;;;;4.68;1.20;;;19.80;99.90;;;;;;5039205;28;20116;-58
2022/07/02 08:59:32;;;;;;;4.72;1.15;;;19.60;99.90;;;;;;5039649;28;20049;-59
2022/07/02 09:02:01;;;;;;;4.30;1.25;;;19.70;99.90;;;;;;5038309;28;20041;-59
2022/07/02 09:04:27;;;;;;;5.65;1.17;;;19.70;99.90;;;;;;5040176;28;20088;-59
2022/07/02 09:06:58;;;;;;;8.52;1.67;;;19.80;99.90;;;;;;5038512;28;20041;-59
2022/07/02 09:09:28;;;;;;;3.50;1.10;;;20.00;99.90;;;;;;5040278;28;20053;-59
2022/07/02 09:11:56;;;;;;;4.43;1.00;;;20.00;99.90;;;;;;5038724;28;20077;-59
2022/07/02 09:14:21;;;;;;;5.18;1.10;;;20.00;99.90;;;;;;5039176;28;20073;-59
2022/07/02 09:16:48;;;;;;;3.90;0.98;;;20.10;99.90;;;;;;5040553;28;20052;-59
2022/07/02 09:19:15;;;;;;;3.55;0.98;;;20.30;99.90;;;;;;5038499;28;20045;-60
2022/07/02 09:21:48;;;;;;;4.18;1.42;;;20.30;99.90;;;;;;5030613;28;20038;-58
2022/07/02 09:24:14;;;;;;;5.93;1.10;;;20.50;99.90;;;;;;5018524;28;20054;-58
2022/07/02 09:26:40;;;;;;;4.07;0.98;;;20.30;99.90;;;;;;5020815;28;20097;-59
2022/07/02 09:29:06;;;;;;;5.00;1.08;;;20.50;99.90;;;;;;5019448;28;20034;-58
2022/07/02 09:31:32;;;;;;;4.22;0.90;;;20.50;99.90;;;;;;5018029;28;20065;-59
2022/07/02 09:33:59;;;;;;;4.18;0.85;;;20.30;99.90;;;;;;5020237;28;20554;-59
2022/07/02 09:36:25;;;;;;;3.67;0.90;;;20.30;99.90;;;;;;5018437;28;20050;-59
2022/07/02 09:38:53;;;;;;;4.03;1.00;;;20.50;99.90;;;;;;5020603;28;20097;-59
2022/07/02 09:41:21;;;;;;;2.95;0.93;;;20.60;99.90;;;;;;5017065;28;20470;-60
2022/07/02 09:44:00;;;;;;;3.25;1.10;;;21.00;99.90;;;;;;5019966;28;20076;-59
2022/07/02 09:46:26;;;;;;;4.45;1.00;;;21.10;99.90;;;;;;5019645;28;20042;-60
2022/07/02 09:48:52;;;;;;;4.72;1.10;;;20.90;99.90;;;;;;5001024;28;20095;-60
2022/07/02 09:51:18;;;;;;;4.60;1.42;;;21.00;99.90;;;;;;5025118;28;20120;-59
2022/07/02 09:54:02;;;;;;;5.75;0.95;;;21.30;99.90;;;;;;5038032;28;20045;-58
2022/07/02 09:56:28;;;;;;;3.53;1.00;;;21.10;99.90;;;;;;5039744;28;20048;-60
2022/07/02 09:58:53;;;;;;;3.90;0.90;;;21.20;99.90;;;;;;5038473;28;20042;-59
2022/07/02 10:01:21;;;;;;;4.22;0.95;;;21.40;99.90;;;;;;5039289;28;20482;-59
2022/07/02 10:03:52;;;;;;;5.47;0.98;;;21.60;99.90;;;;;;5039400;28;20045;-59
2022/07/02 10:06:19;;;;;;;4.20;0.90;;;21.70;99.90;;;;;;5038027;28;20048;-59
2022/07/02 10:08:45;;;;;;;6.22;0.90;;;21.60;99.90;;;;;;5039191;28;20074;-60
2022/07/02 10:11:13;;;;;;;3.28;0.77;;;21.80;99.90;;;;;;5037512;28;20096;-60
2022/07/02 10:13:40;;;;;;;3.17;0.90;;;21.40;99.90;;;;;;5037881;28;20085;-59
2022/07/02 10:16:12;;;;;;;4.40;0.80;;;21.30;99.90;;;;;;5038382;28;20096;-59
2022/07/02 10:18:40;;;;;;;2.92;0.80;;;21.10;99.90;;;;;;5037227;28;20054;-59
2022/07/02 10:21:07;;;;;;;2.85;0.75;;;21.00;99.90;;;;;;5032915;28;20053;-59
2022/07/02 10:23:34;;;;;;;3.83;0.90;;;20.80;99.90;;;;;;5017804;28;20061;-59
2022/07/02 10:26:00;;;;;;;2.85;0.90;;;20.80;99.90;;;;;;5019846;28;20038;-59
2022/07/02 10:28:26;;;;;;;4.03;0.90;;;20.50;99.90;;;;;;5017469;28;20053;-59
2022/07/02 10:30:56;;;;;;;4.97;0.77;;;20.50;99.90;;;;;;5019396;28;20082;-59
2022/07/02 10:33:31;;;;;;;3.90;0.90;;;20.60;99.90;;;;;;5018614;28;20042;-59
2022/07/02 10:36:02;;;;;;;3.50;0.80;;;20.80;99.90;;;;;;5018105;28;20571;-59
2022/07/02 10:38:31;;;;;;;3.70;1.10;;;20.80;99.90;;;;;;5019610;28;20042;-59
2022/07/02 10:40:57;;;;;;;2.60;0.80;;;20.70;99.90;;;;;;5017360;28;20073;-60
2022/07/02 10:43:23;;;;;;;2.58;0.68;;;20.50;99.90;;;;;;5019407;28;20042;-59
2022/07/02 10:45:49;;;;;;;6.13;0.70;;;20.40;99.90;;;;;;5016435;28;20514;-59
2022/07/02 10:48:15;;;;;;;3.20;0.80;;;20.70;99.90;;;;;;5018802;28;20080;-59
2022/07/02 10:50:46;;;;;;;3.05;0.85;;;21.00;99.90;;;;;;5018440;28;20129;-59
2022/07/02 10:53:20;;;;;;;2.73;0.73;;;20.80;99.90;;;;;;5037031;28;20042;-59
2022/07/02 10:55:52;;;;;;;5.85;0.95;;;21.00;99.90;;;;;;5038856;28;20304;-59
2022/07/02 10:58:31;;;;;;;2.88;1.23;;;21.30;99.90;;;;;;5036387;28;20053;-59
2022/07/02 11:01:12;;;;;;;3.38;0.80;;;21.10;99.90;;;;;;5038375;28;20037;-60
2022/07/02 11:03:38;;;;;;;2.92;0.70;;;21.60;99.90;;;;;;5036334;28;20053;-60
2022/07/02 11:06:20;;;;;;;2.95;0.70;;;21.80;99.90;;;;;;5033920;28;20053;-60
2022/07/02 11:08:53;;;;;;;3.92;0.77;;;21.50;99.90;;;;;;5035830;28;20046;-60
2022/07/02 11:11:40;;;;;;;3.53;0.70;;;21.20;99.90;;;;;;5033554;28;20110;-60
2022/07/02 11:14:10;;;;;;;2.53;0.60;;;21.70;99.90;;;;;;5033011;28;20660;-60
2022/07/02 11:16:40;;;;;;;5.63;0.88;;;21.70;99.90;;;;;;5034633;28;20060;-60
2022/07/02 11:19:17;;;;;;;5.78;1.08;;;21.90;99.90;;;;;;5029572;28;20509;-60
2022/07/02 11:21:44;;;;;;;4.55;0.70;;;22.20;99.90;;;;;;5031916;28;20121;-59
2022/07/02 11:24:10;;;;;;;2.50;0.70;;;22.10;99.90;;;;;;5036563;28;20073;-59
2022/07/02 11:26:40;;;;;;;3.55;0.70;;;22.10;99.90;;;;;;5032666;28;20057;-59
2022/07/02 11:29:06;;;;;;;4.72;1.02;;;22.00;99.90;;;;;;5037480;28;20069;-59
2022/07/02 11:31:36;;;;;;;3.63;0.65;;;22.00;99.90;;;;;;5038156;28;20056;-60
2022/07/02 11:34:02;;;;;;;1.45;0.75;;;22.00;99.90;;;;;;5036572;28;20060;-60
2022/07/02 11:36:28;;;;;;;4.05;0.80;;;22.00;99.90;;;;;;5036438;28;20701;-60
2022/07/02 11:38:55;;;;;;;5.63;1.00;;;22.20;99.90;;;;;;5039074;28;20033;-60
2022/07/02 11:41:26;;;;;;;2.58;0.70;;;22.30;99.90;;;;;;5036215;28;20037;-60
2022/07/02 11:43:55;;;;;;;3.10;0.70;;;22.60;99.90;;;;;;5038322;28;20113;-59
2022/07/02 11:46:23;;;;;;;4.82;0.70;;;22.40;99.90;;;;;;5037823;28;20041;-59
2022/07/02 11:48:50;;;;;;;4.32;0.82;;;22.70;99.90;;;;;;5036483;28;20562;-61
2022/07/02 11:51:19;;;;;;;3.97;1.00;;;22.80;99.90;;;;;;5038774;28;20041;-59
2022/07/02 11:54:01;;;;;;;4.55;0.88;;;22.80;99.90;;;;;;5037280;28;20045;-59
2022/07/02 11:56:28;;;;;;;6.55;1.40;;;22.30;99.80;;;;;;5039005;28;20049;-59
2022/07/02 11:58:55;;;;;;;3.22;0.98;;;22.20;99.90;;;;;;5037656;28;20046;-58
2022/07/02 12:01:23;;;;;;;5.07;0.88;;;22.00;99.90;;;;;;5038221;28;20049;-60
2022/07/02 12:03:50;;;;;;;3.72;0.90;;;22.30;99.90;;;;;;5038246;28;20042;-60
2022/07/02 12:06:17;;;;;;;1.58;0.50;;;22.50;99.90;;;;;;5036896;28;20037;-59
2022/07/02 12:08:43;;;;;;;2.60;0.70;;;22.40;99.90;;;;;;5039012;28;20054;-60
2022/07/02 12:11:13;;;;;;;2.53;0.65;;;22.40;99.90;;;;;;5037130;28;20045;-59
2022/07/02 12:13:39;;;;;;;2.35;0.60;;;22.10;99.60;;;;;;5040513;28;20058;-60
2022/07/02 12:16:05;;;;;;;4.10;0.70;;;22.20;99.90;;;;;;5037757;28;20042;-60
2022/07/02 12:18:31;;;;;;;2.85;0.50;;;22.50;99.90;;;;;;5040730;28;20095;-60
2022/07/02 12:21:11;;;;;;;3.78;0.90;;;22.50;99.90;;;;;;5041220;28;20447;-60
2022/07/02 12:23:47;;;;;;;2.40;0.70;;;22.50;99.90;;;;;;5039806;28;20493;-60
2022/07/02 12:26:24;;;;;;;3.20;0.70;;;22.40;99.90;;;;;;5041697;28;20509;-60
2022/07/02 12:31:54;;;;;;;4.07;1.05;;;22.70;99.90;;;;;;5039282;28;20068;-60
2022/07/02 12:34:25;;;;;;;4.22;0.93;;;22.60;99.90;;;;;;5041443;28;20521;-60
2022/07/02 12:37:00;;;;;;;2.67;0.70;;;22.70;99.90;;;;;;5039478;28;20101;-61
2022/07/02 12:39:41;;;;;;;2.40;0.70;;;22.60;99.90;;;;;;5041504;28;20719;-60
2022/07/02 12:42:18;;;;;;;4.27;0.80;;;22.10;99.70;;;;;;5040466;28;20049;-60
2022/07/02 12:44:56;;;;;;;3.20;0.90;;;22.40;99.90;;;;;;5039146;28;20037;-60
2022/07/02 12:47:28;;;;;;;2.35;0.80;;;22.70;99.40;;;;;;5041071;28;20041;-60
2022/07/02 12:49:56;;;;;;;2.17;0.98;;;22.70;99.90;;;;;;5039081;28;20069;-60
2022/07/02 12:52:22;;;;;;;3.38;0.75;;;22.20;99.90;;;;;;5022176;28;20048;-61